Arviat, Canada
Current Conditions -  °F | °C
As of 4:00 PM on Sunday 23 Nov 2014 (Local Time) from CYEK Reporting Station
Clear Clear  
Wind Chill: -33°   Ceiling: Unl
Heat Index: -17°   Visibility: 9mi
Dew Point: -22°   Wind: 7mph
Humidity: 76%   Direction: 270°W
Pressure: 29.89"   Gusts: NA
Location:  61.12°N, 94.05°W
Report Text: CYEK 232200Z AUTO 27006KT 9SM CLR M27/M30 A2989 RMK SLP122
Loading
Personal Weather Stations






























Interactive Weather Map New forecast layout! Learn more

10-Day Weather Forecast

Advertisements
Track Severe Weather on mobile